Time;durP1;ratioP1;P1;durP2;ratioP2;P2;SDS_P1;SDS_P2;PMS_P1;PMS_P2;Temp;Humidity;BMP_temperature;BMP_pressure;BME280_temperature;BME280_humidity;BME280_pressure;Samples;Min_cycle;Max_cycle;Signal;HPM_P1;HPM_P2
2022/08/18 00:01:49;;;;;;;7.05;4.43;;;;;;;;;;5054374;28;20473;-76
2022/08/18 00:04:15;;;;;;;6.13;4.10;;;;;;;;;;5054538;28;20032;-78
2022/08/18 00:06:41;;;;;;;7.88;4.05;;;;;;;;;;5054495;28;20420;-78
2022/08/18 00:09:08;;;;;;;6.35;4.15;;;;;;;;;;5036230;28;20025;-76
2022/08/18 00:11:36;;;;;;;5.93;4.00;;;;;;;;;;5054352;28;20036;-76
2022/08/18 00:14:02;;;;;;;6.05;4.03;;;;;;;;;;5054377;28;20048;-78
2022/08/18 00:16:28;;;;;;;7.00;3.50;;;;;;;;;;5036612;28;20029;-76
2022/08/18 00:18:54;;;;;;;8.40;3.72;;;;;;;;;;5055012;28;20028;-76
2022/08/18 00:21:20;;;;;;;4.63;3.40;;;;;;;;;;5054894;28;20033;-77
2022/08/18 00:23:46;;;;;;;4.97;3.47;;;;;;;;;;5055022;28;20047;-76
2022/08/18 00:26:12;;;;;;;4.75;3.53;;;;;;;;;;5054983;28;20021;-76
2022/08/18 00:28:38;;;;;;;8.00;3.65;;;;;;;;;;5036973;28;20121;-76
2022/08/18 00:31:05;;;;;;;4.20;3.42;;;;;;;;;;5054939;28;20032;-76
2022/08/18 00:33:31;;;;;;;5.82;3.83;;;;;;;;;;5054926;28;20100;-75
2022/08/18 00:35:57;;;;;;;6.03;3.55;;;;;;;;;;5035338;28;20082;-77
2022/08/18 00:38:23;;;;;;;5.28;3.80;;;;;;;;;;5041036;28;20411;-78
2022/08/18 00:40:53;;;;;;;6.30;3.33;;;;;;;;;;5044617;28;20354;-76
2022/08/18 00:43:45;;;;;;;6.53;3.63;;;;;;;;;;5055114;28;20028;-77
2022/08/18 00:46:14;;;;;;;10.05;3.72;;;;;;;;;;5050876;28;20049;-77
2022/08/18 00:48:40;;;;;;;6.82;4.20;;;;;;;;;;5054436;28;20029;-78
2022/08/18 00:51:15;;;;;;;7.13;4.10;;;;;;;;;;5054351;28;20071;-76
2022/08/18 00:53:44;;;;;;;5.47;3.42;;;;;;;;;;5054609;28;20029;-75
2022/08/18 00:56:21;;;;;;;6.40;3.47;;;;;;;;;;5054168;28;20392;-76
2022/08/18 00:58:50;;;;;;;5.88;3.88;;;;;;;;;;5054314;28;20032;-77
2022/08/18 01:01:18;;;;;;;6.93;3.95;;;;;;;;;;5036251;28;20116;-77
2022/08/18 01:03:51;;;;;;;5.40;4.10;;;;;;;;;;5036362;28;20036;-77
2022/08/18 01:06:23;;;;;;;6.05;3.97;;;;;;;;;;5035908;28;20021;-76
2022/08/18 01:08:49;;;;;;;8.55;4.07;;;;;;;;;;5054045;28;20474;-76
2022/08/18 01:11:15;;;;;;;6.88;4.10;;;;;;;;;;5054488;28;20108;-77
2022/08/18 01:13:42;;;;;;;8.77;4.15;;;;;;;;;;5054171;28;20112;-75
2022/08/18 01:21:50;;;;;;;9.32;4.78;;;;;;;;;;5057750;28;20095;-79
2022/08/18 01:24:17;;;;;;;9.38;5.38;;;;;;;;;;5057888;28;20112;-78
2022/08/18 01:26:48;;;;;;;8.68;4.85;;;;;;;;;;5057113;28;20021;-78
2022/08/18 01:29:15;;;;;;;8.23;5.10;;;;;;;;;;5053081;28;20025;-77
2022/08/18 01:31:42;;;;;;;13.25;5.10;;;;;;;;;;5074081;28;20029;-78
2022/08/18 01:34:09;;;;;;;10.43;4.97;;;;;;;;;;5072507;28;20016;-76
2022/08/18 01:36:37;;;;;;;8.57;5.00;;;;;;;;;;5075494;28;20086;-76
2022/08/18 01:39:05;;;;;;;7.28;4.97;;;;;;;;;;5075209;28;20070;-77
2022/08/18 01:41:31;;;;;;;7.22;5.00;;;;;;;;;;5071784;28;20092;-78
2022/08/18 01:43:58;;;;;;;10.25;5.32;;;;;;;;;;5041031;28;20693;-78
2022/08/18 01:46:24;;;;;;;9.98;5.18;;;;;;;;;;5063031;28;20386;-79
2022/08/18 01:48:50;;;;;;;8.98;5.43;;;;;;;;;;5062122;28;20024;-77
2022/08/18 01:51:18;;;;;;;9.35;5.55;;;;;;;;;;5056796;28;20067;-77
2022/08/18 01:53:45;;;;;;;7.28;5.00;;;;;;;;;;5046589;28;20105;-79
2022/08/18 01:56:11;;;;;;;9.55;6.10;;;;;;;;;;5058254;28;20449;-79
2022/08/18 01:58:37;;;;;;;10.75;5.65;;;;;;;;;;5056032;28;20121;-77
2022/08/18 02:01:04;;;;;;;7.88;5.30;;;;;;;;;;5058841;28;20063;-77
2022/08/18 02:03:41;;;;;;;10.38;6.07;;;;;;;;;;5058925;28;20108;-77
2022/08/18 02:06:11;;;;;;;10.88;5.50;;;;;;;;;;5058911;28;20087;-77
2022/08/18 02:08:37;;;;;;;7.85;5.03;;;;;;;;;;5063109;28;20036;-77
2022/08/18 02:11:04;;;;;;;11.10;6.03;;;;;;;;;;5068370;28;20443;-77
2022/08/18 02:13:30;;;;;;;10.52;6.72;;;;;;;;;;5067619;28;20033;-77
2022/08/18 02:15:56;;;;;;;11.75;6.53;;;;;;;;;;5064399;28;20086;-77
2022/08/18 02:18:29;;;;;;;9.45;6.05;;;;;;;;;;5063508;28;20021;-77
2022/08/18 02:20:56;;;;;;;9.20;6.22;;;;;;;;;;5047058;28;20088;-77
2022/08/18 02:23:22;;;;;;;9.77;5.97;;;;;;;;;;5064242;28;20053;-75
2022/08/18 02:25:48;;;;;;;8.50;6.20;;;;;;;;;;5064863;28;20417;-78
2022/08/18 02:28:14;;;;;;;12.30;7.30;;;;;;;;;;5065310;28;20024;-80
2022/08/18 02:30:40;;;;;;;13.75;8.10;;;;;;;;;;5071343;28;20424;-76
2022/08/18 02:33:07;;;;;;;12.55;6.47;;;;;;;;;;5055185;28;20028;-77
2022/08/18 02:35:33;;;;;;;12.82;8.52;;;;;;;;;;5036890;28;20032;-77
2022/08/18 02:38:00;;;;;;;10.57;7.72;;;;;;;;;;5052896;28;20077;-77
2022/08/18 02:40:26;;;;;;;10.23;7.28;;;;;;;;;;5059055;28;20029;-82
2022/08/18 02:42:52;;;;;;;9.48;6.90;;;;;;;;;;5046279;28;20032;-76
2022/08/18 02:45:18;;;;;;;9.90;7.43;;;;;;;;;;5048426;28;20412;-77
2022/08/18 02:47:44;;;;;;;12.30;7.18;;;;;;;;;;5039609;28;20048;-77
2022/08/18 02:50:11;;;;;;;11.63;9.05;;;;;;;;;;5053840;28;20082;-77
2022/08/18 02:52:37;;;;;;;12.55;8.55;;;;;;;;;;5052860;28;20037;-79
2022/08/18 02:55:04;;;;;;;11.85;7.90;;;;;;;;;;5055138;28;20029;-77
2022/08/18 02:57:31;;;;;;;11.07;8.38;;;;;;;;;;5053088;28;20020;-78
2022/08/18 02:59:57;;;;;;;13.48;8.52;;;;;;;;;;5051521;28;20032;-78
2022/08/18 03:02:23;;;;;;;11.75;8.30;;;;;;;;;;5052794;28;20379;-77
2022/08/18 03:04:50;;;;;;;11.55;8.23;;;;;;;;;;5034883;28;20502;-77
2022/08/18 03:07:16;;;;;;;14.70;9.77;;;;;;;;;;5052494;28;20017;-78
2022/08/18 03:09:42;;;;;;;13.27;7.97;;;;;;;;;;5052314;28;20036;-76
2022/08/18 03:12:09;;;;;;;13.48;8.27;;;;;;;;;;5055412;28;20466;-78
2022/08/18 03:14:35;;;;;;;12.60;9.80;;;;;;;;;;5055027;28;20029;-78
2022/08/18 03:17:03;;;;;;;14.15;9.10;;;;;;;;;;5053756;28;20185;-77
2022/08/18 03:19:29;;;;;;;14.07;9.63;;;;;;;;;;5052672;28;20033;-76
2022/08/18 03:21:58;;;;;;;16.40;10.00;;;;;;;;;;5051799;28;20112;-76
2022/08/18 03:24:24;;;;;;;14.38;9.15;;;;;;;;;;5052300;28;20013;-76
2022/08/18 03:26:50;;;;;;;12.82;8.77;;;;;;;;;;5052179;28;20113;-76
2022/08/18 03:29:16;;;;;;;10.80;8.57;;;;;;;;;;5052636;28;20032;-76
2022/08/18 03:31:43;;;;;;;11.68;9.05;;;;;;;;;;5053039;28;20029;-76
2022/08/18 03:34:09;;;;;;;13.70;8.90;;;;;;;;;;5034737;28;20025;-77
2022/08/18 03:36:36;;;;;;;10.80;8.57;;;;;;;;;;5016880;28;1047888;-77
2022/08/18 03:39:04;;;;;;;9.32;8.18;;;;;;;;;;5035942;28;20040;-76
2022/08/18 03:41:30;;;;;;;13.07;8.20;;;;;;;;;;5054021;28;20466;-77
2022/08/18 03:43:56;;;;;;;13.63;9.70;;;;;;;;;;5054012;28;20028;-77
2022/08/18 03:46:23;;;;;;;9.88;8.65;;;;;;;;;;5053490;28;20041;-76
2022/08/18 03:48:50;;;;;;;10.20;7.80;;;;;;;;;;5057449;28;20016;-78
2022/08/18 03:51:18;;;;;;;15.05;10.25;;;;;;;;;;5056000;28;20027;-78
2022/08/18 03:53:45;;;;;;;18.50;10.18;;;;;;;;;;5057114;28;20029;-79
2022/08/18 03:56:14;;;;;;;15.70;8.93;;;;;;;;;;5057550;28;20021;-78
2022/08/18 03:58:44;;;;;;;13.48;9.43;;;;;;;;;;5057803;28;20126;-77
2022/08/18 04:01:15;;;;;;;15.85;10.10;;;;;;;;;;5054835;28;20033;-75
2022/08/18 04:03:42;;;;;;;16.58;10.57;;;;;;;;;;5060976;28;20032;-77
2022/08/18 04:06:09;;;;;;;18.33;11.63;;;;;;;;;;5058686;28;20035;-77
2022/08/18 04:08:35;;;;;;;14.45;10.75;;;;;;;;;;5065412;28;20021;-75
2022/08/18 04:11:00;;;;;;;18.98;10.00;;;;;;;;;;5068017;28;20043;-77
2022/08/18 04:13:26;;;;;;;14.30;10.23;;;;;;;;;;5066443;28;20029;-79
2022/08/18 04:15:52;;;;;;;12.65;10.18;;;;;;;;;;5060038;28;20029;-76
2022/08/18 04:18:18;;;;;;;17.98;10.60;;;;;;;;;;5057416;28;20029;-78
2022/08/18 04:20:45;;;;;;;14.55;10.63;;;;;;;;;;5056993;28;20021;-77
2022/08/18 04:23:13;;;;;;;18.83;12.18;;;;;;;;;;5040723;28;20385;-78
2022/08/18 04:25:39;;;;;;;18.55;10.75;;;;;;;;;;5059830;28;20017;-77
2022/08/18 04:28:05;;;;;;;13.48;10.57;;;;;;;;;;5058741;28;20056;-80
2022/08/18 04:30:31;;;;;;;13.40;10.52;;;;;;;;;;5070003;28;20114;-78
2022/08/18 04:32:57;;;;;;;13.95;10.25;;;;;;;;;;5074088;28;20032;-81
2022/08/18 04:35:23;;;;;;;14.30;10.32;;;;;;;;;;5042623;28;20027;-78
2022/08/18 04:37:49;;;;;;;13.65;9.88;;;;;;;;;;5081970;22;20040;-78
2022/08/18 04:40:15;;;;;;;18.85;12.30;;;;;;;;;;5056800;28;20210;-78
2022/08/18 04:42:41;;;;;;;18.77;14.30;;;;;;;;;;5056755;28;20029;-78
2022/08/18 04:45:07;;;;;;;15.65;11.32;;;;;;;;;;5056391;28;20036;-77
2022/08/18 04:47:35;;;;;;;18.10;11.35;;;;;;;;;;5055218;28;20026;-76
2022/08/18 04:50:01;;;;;;;13.63;10.15;;;;;;;;;;5055533;28;20028;-77
2022/08/18 04:55:11;;;;;;;14.30;10.10;;;;;;;;;;5056309;28;20078;-77
2022/08/18 04:57:38;;;;;;;15.07;10.52;;;;;;;;;;5055866;28;20029;-78
2022/08/18 05:00:05;;;;;;;15.27;9.93;;;;;;;;;;5057420;28;20371;-77
2022/08/18 05:02:31;;;;;;;22.95;9.30;;;;;;;;;;5055047;28;20440;-77
2022/08/18 05:04:57;;;;;;;14.35;9.77;;;;;;;;;;5057228;28;20462;-77
2022/08/18 05:07:24;;;;;;;12.85;9.88;;;;;;;;;;5056856;28;20399;-78
2022/08/18 05:09:52;;;;;;;14.02;10.52;;;;;;;;;;5057437;28;20027;-75
2022/08/18 05:12:18;;;;;;;14.52;10.23;;;;;;;;;;5058574;28;20029;-77
2022/08/18 05:14:45;;;;;;;13.30;9.63;;;;;;;;;;5057098;28;20109;-77
2022/08/18 05:17:11;;;;;;;15.45;10.35;;;;;;;;;;5064275;28;20021;-78
2022/08/18 05:19:37;;;;;;;15.30;9.82;;;;;;;;;;5069174;28;20031;-76
2022/08/18 05:22:04;;;;;;;14.02;10.07;;;;;;;;;;5057764;28;20565;-76
2022/08/18 05:24:32;;;;;;;13.10;9.85;;;;;;;;;;5055753;28;20139;-77
2022/08/18 05:26:58;;;;;;;17.33;10.32;;;;;;;;;;5056611;28;20048;-77
2022/08/18 05:29:24;;;;;;;15.80;10.00;;;;;;;;;;5058551;28;20093;-76
2022/08/18 05:31:51;;;;;;;12.52;9.75;;;;;;;;;;5058983;28;20052;-75
2022/08/18 05:34:19;;;;;;;15.23;9.90;;;;;;;;;;5060322;28;20045;-77
2022/08/18 05:36:51;;;;;;;13.45;9.48;;;;;;;;;;5061560;28;20025;-76
2022/08/18 05:39:17;;;;;;;15.07;9.68;;;;;;;;;;5062588;28;20055;-77
2022/08/18 05:41:45;;;;;;;14.75;10.57;;;;;;;;;;5055665;28;20401;-76
2022/08/18 05:44:17;;;;;;;13.52;10.05;;;;;;;;;;5055550;28;20051;-75
2022/08/18 05:46:51;;;;;;;15.13;11.15;;;;;;;;;;5057099;28;20029;-77
2022/08/18 05:49:17;;;;;;;19.38;10.50;;;;;;;;;;5056129;28;20021;-74
2022/08/18 05:51:47;;;;;;;15.65;10.68;;;;;;;;;;5054498;28;20059;-76
2022/08/18 05:57:01;;;;;;;21.83;11.65;;;;;;;;;;5065232;28;20031;-78
2022/08/18 05:59:35;;;;;;;18.00;11.73;;;;;;;;;;5055587;28;20028;-73
2022/08/18 06:02:01;;;;;;;20.63;12.02;;;;;;;;;;5053400;28;20028;-75
2022/08/18 06:04:33;;;;;;;21.00;12.95;;;;;;;;;;5053026;28;20032;-73
2022/08/18 06:07:02;;;;;;;22.20;13.23;;;;;;;;;;5053979;28;20049;-74
2022/08/18 06:09:27;;;;;;;23.63;12.95;;;;;;;;;;5054667;28;20028;-79
2022/08/18 06:11:56;;;;;;;21.35;13.18;;;;;;;;;;5053943;28;20029;-77
2022/08/18 06:14:22;;;;;;;16.42;12.20;;;;;;;;;;5053349;28;20032;-76
2022/08/18 06:16:56;;;;;;;26.48;15.10;;;;;;;;;;5055512;28;20043;-76
2022/08/18 06:19:26;;;;;;;18.48;13.30;;;;;;;;;;5053757;28;20021;-76
2022/08/18 06:22:02;;;;;;;18.95;13.10;;;;;;;;;;5054233;28;20486;-76
2022/08/18 06:24:42;;;;;;;19.75;14.57;;;;;;;;;;5054814;28;20031;-78
2022/08/18 06:27:08;;;;;;;20.20;13.35;;;;;;;;;;5053468;28;20021;-76
2022/08/18 06:29:46;;;;;;;20.23;14.10;;;;;;;;;;5055106;28;20473;-77
2022/08/18 06:32:18;;;;;;;19.73;15.52;;;;;;;;;;5055024;28;20025;-75
2022/08/18 06:35:02;;;;;;;22.55;15.85;;;;;;;;;;5055747;28;20104;-76
2022/08/18 06:38:37;;;;;;;20.88;13.95;;;;;;;;;;5053103;28;20036;-74
2022/08/18 06:40:20;;;;;;;21.83;16.20;;;;;;;;;;5053705;28;20037;-77
2022/08/18 06:42:47;;;;;;;24.35;15.80;;;;;;;;;;5054053;28;20059;-75
2022/08/18 06:45:17;;;;;;;20.05;14.95;;;;;;;;;;5053276;28;20025;-74
2022/08/18 06:47:49;;;;;;;21.50;14.02;;;;;;;;;;5053218;28;20013;-76
2022/08/18 06:50:15;;;;;;;19.40;14.02;;;;;;;;;;5051971;28;20049;-75
2022/08/18 06:53:01;;;;;;;21.67;15.38;;;;;;;;;;5053562;28;20032;-76
2022/08/18 06:55:33;;;;;;;26.88;17.73;;;;;;;;;;5054938;28;20361;-76
2022/08/18 06:58:00;;;;;;;26.50;19.05;;;;;;;;;;5056928;28;20021;-75
2022/08/18 07:00:28;;;;;;;30.75;22.33;;;;;;;;;;5055623;28;20046;-75
2022/08/18 07:03:00;;;;;;;29.75;22.92;;;;;;;;;;5052618;28;20486;-76
2022/08/18 07:05:31;;;;;;;37.95;27.98;;;;;;;;;;5053992;28;20027;-74
2022/08/18 07:08:05;;;;;;;46.35;32.05;;;;;;;;;;5053779;28;20027;-75
2022/08/18 07:10:33;;;;;;;62.22;41.63;;;;;;;;;;5053484;28;20048;-76
2022/08/18 07:13:11;;;;;;;68.13;44.25;;;;;;;;;;5053585;28;20424;-76
2022/08/18 07:15:37;;;;;;;72.82;45.38;;;;;;;;;;5053405;28;20021;-76
2022/08/18 07:18:06;;;;;;;78.85;49.70;;;;;;;;;;5053240;28;20061;-78
2022/08/18 07:20:40;;;;;;;78.20;48.35;;;;;;;;;;5054982;28;20020;-75
2022/08/18 07:23:07;;;;;;;86.47;52.95;;;;;;;;;;5055175;28;20040;-74
2022/08/18 07:25:38;;;;;;;106.88;58.60;;;;;;;;;;5054812;28;20042;-76
2022/08/18 07:28:04;;;;;;;101.00;54.40;;;;;;;;;;5055001;28;20029;-76
2022/08/18 07:30:35;;;;;;;129.73;57.40;;;;;;;;;;5054888;28;20029;-75
2022/08/18 07:33:04;;;;;;;109.13;55.33;;;;;;;;;;5054812;28;20624;-76
2022/08/18 07:35:38;;;;;;;99.40;54.58;;;;;;;;;;5054784;28;20433;-75
2022/08/18 07:38:16;;;;;;;101.95;53.28;;;;;;;;;;5056459;28;20029;-75
2022/08/18 07:41:03;;;;;;;105.65;54.47;;;;;;;;;;5054384;28;20031;-75
2022/08/18 07:43:36;;;;;;;100.13;55.22;;;;;;;;;;5053745;28;20560;-74
2022/08/18 07:46:09;;;;;;;94.00;51.25;;;;;;;;;;5054332;28;20025;-75
2022/08/18 07:48:35;;;;;;;90.85;49.17;;;;;;;;;;5057655;28;20029;-74
2022/08/18 07:51:07;;;;;;;93.82;50.50;;;;;;;;;;5058364;28;20116;-74
2022/08/18 07:53:50;;;;;;;93.25;54.20;;;;;;;;;;5068062;28;20025;-72
2022/08/18 07:56:15;;;;;;;79.80;45.90;;;;;;;;;;5065211;28;20044;-74
2022/08/18 07:58:49;;;;;;;86.00;51.03;;;;;;;;;;5058323;28;20033;-74
2022/08/18 08:01:33;;;;;;;87.30;52.60;;;;;;;;;;5057680;28;20037;-76
2022/08/18 08:04:05;;;;;;;77.00;48.45;;;;;;;;;;5055005;28;20021;-75
2022/08/18 08:06:31;;;;;;;83.60;50.63;;;;;;;;;;5054677;28;20036;-73
2022/08/18 08:09:22;;;;;;;88.82;53.30;;;;;;;;;;5056300;28;20018;-73
2022/08/18 08:11:55;;;;;;;86.55;52.65;;;;;;;;;;5057162;28;20036;-74
2022/08/18 08:14:21;;;;;;;82.93;51.22;;;;;;;;;;5057576;28;20528;-73
2022/08/18 08:17:10;;;;;;;86.80;53.78;;;;;;;;;;5056530;28;20111;-73
2022/08/18 08:19:41;;;;;;;77.57;49.55;;;;;;;;;;5057401;28;20501;-74
2022/08/18 08:22:14;;;;;;;68.00;43.53;;;;;;;;;;5060590;28;20484;-79
2022/08/18 08:24:40;;;;;;;65.05;40.53;;;;;;;;;;5058639;28;20025;-77
2022/08/18 08:27:13;;;;;;;58.95;38.35;;;;;;;;;;5058219;28;20163;-79
2022/08/18 08:29:57;;;;;;;60.17;35.25;;;;;;;;;;5059203;28;20489;-75
2022/08/18 08:32:27;;;;;;;59.17;34.38;;;;;;;;;;5057072;28;20029;-75
2022/08/18 08:34:57;;;;;;;51.05;32.08;;;;;;;;;;5057300;28;20327;-74
2022/08/18 08:37:29;;;;;;;56.35;33.17;;;;;;;;;;5058213;28;20464;-74
2022/08/18 08:39:58;;;;;;;54.10;33.03;;;;;;;;;;5056030;28;20040;-76
2022/08/18 08:42:31;;;;;;;52.13;32.65;;;;;;;;;;5055967;28;20032;-75
2022/08/18 08:44:59;;;;;;;61.38;36.63;;;;;;;;;;5058878;28;20032;-72
2022/08/18 08:47:32;;;;;;;47.10;32.33;;;;;;;;;;5054977;28;20104;-74
2022/08/18 08:50:02;;;;;;;51.60;33.10;;;;;;;;;;5056218;28;20021;-75
2022/08/18 08:52:40;;;;;;;54.15;34.58;;;;;;;;;;5054956;28;20082;-75
2022/08/18 08:55:14;;;;;;;55.03;35.05;;;;;;;;;;5055928;28;20028;-75
2022/08/18 08:58:03;;;;;;;57.97;34.80;;;;;;;;;;5057049;28;20397;-76
2022/08/18 09:00:30;;;;;;;59.22;39.20;;;;;;;;;;5050329;28;20040;-73
2022/08/18 09:03:30;;;;;;;46.10;30.50;;;;;;;;;;5056515;28;20428;-78
2022/08/18 09:05:59;;;;;;;44.40;29.85;;;;;;;;;;5044141;28;20405;-77
2022/08/18 09:08:43;;;;;;;45.03;31.02;;;;;;;;;;5055930;28;20025;-75
2022/08/18 09:11:12;;;;;;;52.60;34.40;;;;;;;;;;5054683;28;20032;-74
2022/08/18 09:13:58;;;;;;;46.60;28.63;;;;;;;;;;5055024;28;20495;-75
2022/08/18 09:16:43;;;;;;;49.65;32.55;;;;;;;;;;5055057;28;20045;-76
2022/08/18 09:19:11;;;;;;;45.85;28.40;;;;;;;;;;5054787;28;20028;-75
2022/08/18 09:21:43;;;;;;;49.63;31.60;;;;;;;;;;5055761;28;20097;-74
2022/08/18 09:24:09;;;;;;;49.83;31.73;;;;;;;;;;5055497;28;20041;-75
2022/08/18 09:26:51;;;;;;;46.85;32.58;;;;;;;;;;5057909;28;20056;-73
2022/08/18 09:29:17;;;;;;;50.30;32.20;;;;;;;;;;5057022;28;20024;-74
2022/08/18 09:31:44;;;;;;;47.55;30.25;;;;;;;;;;5056999;28;20025;-75
2022/08/18 09:34:46;;;;;;;51.83;33.13;;;;;;;;;;5056266;28;20036;-75
2022/08/18 09:37:32;;;;;;;47.15;29.13;;;;;;;;;;5031755;28;20090;-73
2022/08/18 09:43:05;;;;;;;47.50;27.92;;;;;;;;;;5054032;28;20040;-74
2022/08/18 09:45:31;;;;;;;;;;;;;;;;;;5056357;28;20103;-75
2022/08/18 09:48:01;;;;;;;40.78;27.20;;;;;;;;;;5055349;28;19931;-74
2022/08/18 09:50:27;;;;;;;53.78;31.73;;;;;;;;;;5056877;28;20029;-75
2022/08/18 09:52:58;;;;;;;39.03;25.13;;;;;;;;;;5057393;28;20036;-78
2022/08/18 09:55:24;;;;;;;49.92;28.60;;;;;;;;;;5055031;28;20171;-75
2022/08/18 09:58:09;;;;;;;43.22;26.20;;;;;;;;;;5053912;28;20021;-75
2022/08/18 10:00:35;;;;;;;44.35;29.80;;;;;;;;;;5053540;28;20036;-74
2022/08/18 10:03:04;;;;;;;46.42;31.63;;;;;;;;;;5053965;28;20025;-74
2022/08/18 10:05:30;;;;;;;46.17;30.00;;;;;;;;;;5053526;28;20017;-74
2022/08/18 10:08:16;;;;;;;43.05;27.88;;;;;;;;;;5053283;28;20025;-74
2022/08/18 10:10:43;;;;;;;40.60;27.67;;;;;;;;;;5053210;28;20097;-73
2022/08/18 10:13:24;;;;;;;42.97;29.38;;;;;;;;;;5051903;28;20033;-76
2022/08/18 10:15:56;;;;;;;38.72;28.27;;;;;;;;;;5053069;28;20091;-75
2022/08/18 10:18:25;;;;;;;44.42;28.83;;;;;;;;;;5053264;28;20028;-74
2022/08/18 10:20:56;;;;;;;44.78;30.05;;;;;;;;;;5054077;28;20017;-77
2022/08/18 10:23:41;;;;;;;40.20;26.92;;;;;;;;;;5054801;28;20025;-74
2022/08/18 10:26:26;;;;;;;44.40;30.25;;;;;;;;;;5052978;28;20032;-75
2022/08/18 10:28:54;;;;;;;46.58;30.25;;;;;;;;;;5053741;28;20086;-76
2022/08/18 10:31:20;;;;;;;43.55;27.65;;;;;;;;;;5055179;28;20469;-77
2022/08/18 10:34:07;;;;;;;42.45;26.90;;;;;;;;;;5063816;28;20020;-79
2022/08/18 10:36:36;;;;;;;42.28;27.42;;;;;;;;;;5066133;28;20036;-74
2022/08/18 10:39:04;;;;;;;39.88;26.35;;;;;;;;;;5085115;22;20139;-77
2022/08/18 10:41:31;;;;;;;39.70;26.85;;;;;;;;;;5083050;28;20567;-77
2022/08/18 10:43:58;;;;;;;45.67;26.98;;;;;;;;;;5080816;28;20388;-77
2022/08/18 10:46:26;;;;;;;38.03;26.40;;;;;;;;;;5067890;28;20110;-78
2022/08/18 10:48:59;;;;;;;36.38;27.05;;;;;;;;;;5089249;28;20032;-76
2022/08/18 10:51:28;;;;;;;48.22;33.85;;;;;;;;;;5069148;28;20020;-77
2022/08/18 10:53:59;;;;;;;38.95;24.50;;;;;;;;;;5078416;28;20078;-78
2022/08/18 10:56:44;;;;;;;43.33;27.55;;;;;;;;;;5079793;28;20106;-78
2022/08/18 10:59:13;;;;;;;38.65;27.05;;;;;;;;;;5088181;28;20012;-78
2022/08/18 11:01:48;;;;;;;41.92;29.02;;;;;;;;;;5078261;28;20036;-77
2022/08/18 11:04:23;;;;;;;42.85;29.67;;;;;;;;;;5073668;28;20017;-76
2022/08/18 11:06:50;;;;;;;36.53;24.60;;;;;;;;;;5074374;28;20028;-76
2022/08/18 11:09:25;;;;;;;44.95;28.75;;;;;;;;;;5073612;28;20086;-76
2022/08/18 11:11:53;;;;;;;37.75;29.13;;;;;;;;;;5073868;28;20500;-77
2022/08/18 11:14:37;;;;;;;37.78;27.42;;;;;;;;;;5074293;28;20497;-75
2022/08/18 11:17:03;;;;;;;42.13;27.60;;;;;;;;;;5072278;28;20051;-76
2022/08/18 11:19:35;;;;;;;35.33;22.42;;;;;;;;;;5053834;28;20481;-76
2022/08/18 11:22:01;;;;;;;32.45;22.55;;;;;;;;;;5072137;28;20020;-75
2022/08/18 11:24:30;;;;;;;39.70;27.70;;;;;;;;;;5072908;28;20027;-74
2022/08/18 11:27:03;;;;;;;31.55;20.20;;;;;;;;;;5072459;28;20362;-75
2022/08/18 11:29:32;;;;;;;28.73;20.77;;;;;;;;;;5072588;28;20367;-74
2022/08/18 11:31:58;;;;;;;32.80;20.63;;;;;;;;;;5058610;28;20033;-76
2022/08/18 11:34:51;;;;;;;35.53;22.75;;;;;;;;;;5065590;28;20546;-76
2022/08/18 11:37:26;;;;;;;28.10;18.83;;;;;;;;;;5063209;28;20063;-74
2022/08/18 11:39:54;;;;;;;27.23;19.40;;;;;;;;;;5068342;28;20040;-75
2022/08/18 11:42:26;;;;;;;24.90;18.55;;;;;;;;;;5059099;28;20024;-75
2022/08/18 11:44:54;;;;;;;28.60;17.73;;;;;;;;;;5073967;28;20029;-76
2022/08/18 11:47:21;;;;;;;27.58;16.92;;;;;;;;;;5072374;28;20013;-75
2022/08/18 11:49:58;;;;;;;24.00;17.38;;;;;;;;;;5074671;28;20035;-75
2022/08/18 11:52:28;;;;;;;23.65;14.85;;;;;;;;;;5076349;28;20112;-76
2022/08/18 11:54:59;;;;;;;29.77;19.75;;;;;;;;;;5074017;28;20025;-77
2022/08/18 11:57:31;;;;;;;22.42;16.63;;;;;;;;;;5074910;28;20020;-76
2022/08/18 11:59:57;;;;;;;38.38;26.80;;;;;;;;;;5054406;28;20121;-78
2022/08/18 12:02:24;;;;;;;23.27;15.18;;;;;;;;;;5073911;28;20078;-76
2022/08/18 12:04:52;;;;;;;28.77;18.02;;;;;;;;;;5073491;28;20055;-77
2022/08/18 12:07:26;;;;;;;18.05;13.38;;;;;;;;;;5072194;28;20036;-78
2022/08/18 12:10:11;;;;;;;22.35;13.15;;;;;;;;;;5072697;28;20025;-77
2022/08/18 12:12:45;;;;;;;18.90;12.65;;;;;;;;;;5073572;28;20048;-76
2022/08/18 12:15:11;;;;;;;20.55;12.95;;;;;;;;;;5080259;28;20357;-76
2022/08/18 12:17:37;;;;;;;21.15;12.55;;;;;;;;;;5073269;28;20027;-76
2022/08/18 12:20:07;;;;;;;22.35;16.00;;;;;;;;;;5078480;28;20481;-75
2022/08/18 12:22:33;;;;;;;17.65;11.45;;;;;;;;;;5073695;28;20043;-75
2022/08/18 12:24:59;;;;;;;15.77;11.32;;;;;;;;;;5074356;28;20063;-76
2022/08/18 12:27:27;;;;;;;17.17;10.75;;;;;;;;;;5070153;28;20031;-77
2022/08/18 12:29:54;;;;;;;16.67;11.73;;;;;;;;;;5051272;28;20017;-80
2022/08/18 12:32:23;;;;;;;16.92;11.82;;;;;;;;;;5037643;28;20083;-75
2022/08/18 12:34:49;;;;;;;15.25;10.52;;;;;;;;;;5057466;28;20350;-77
2022/08/18 12:37:16;;;;;;;21.55;11.43;;;;;;;;;;5062948;28;20055;-77
2022/08/18 12:39:43;;;;;;;13.38;8.65;;;;;;;;;;5048180;28;20052;-75
2022/08/18 12:42:10;;;;;;;14.52;9.07;;;;;;;;;;5065038;28;20457;-75
2022/08/18 12:44:36;;;;;;;14.40;8.57;;;;;;;;;;5067248;28;20029;-80
2022/08/18 12:47:04;;;;;;;13.55;8.55;;;;;;;;;;5062867;28;20033;-74
2022/08/18 12:49:29;;;;;;;12.45;8.00;;;;;;;;;;5055262;28;20055;-76
2022/08/18 12:51:56;;;;;;;16.92;9.70;;;;;;;;;;5054556;28;20021;-78
2022/08/18 12:54:22;;;;;;;12.10;8.55;;;;;;;;;;5055726;28;20056;-76
2022/08/18 12:56:50;;;;;;;11.38;8.80;;;;;;;;;;5054522;28;20029;-74
2022/08/18 12:59:17;;;;;;;15.43;9.80;;;;;;;;;;5055148;28;20078;-73
2022/08/18 13:01:43;;;;;;;15.55;8.95;;;;;;;;;;5060971;28;20025;-76
2022/08/18 13:04:09;;;;;;;18.65;9.50;;;;;;;;;;5065026;28;20021;-75
2022/08/18 13:06:36;;;;;;;18.00;9.85;;;;;;;;;;5062128;28;20096;-75
2022/08/18 13:09:02;;;;;;;12.23;8.48;;;;;;;;;;5044555;28;20025;-76
2022/08/18 13:11:28;;;;;;;16.42;10.32;;;;;;;;;;5061094;28;20029;-76
2022/08/18 13:13:55;;;;;;;16.42;8.65;;;;;;;;;;5062890;28;20032;-75
2022/08/18 13:16:21;;;;;;;12.75;8.20;;;;;;;;;;5044989;28;20147;-75
2022/08/18 13:18:47;;;;;;;9.48;7.05;;;;;;;;;;5068511;28;20072;-75
2022/08/18 13:21:17;;;;;;;10.88;6.97;;;;;;;;;;5047193;28;20036;-75
2022/08/18 13:23:43;;;;;;;20.30;9.15;;;;;;;;;;5044091;28;20029;-74
2022/08/18 13:26:15;;;;;;;14.98;8.27;;;;;;;;;;5045242;28;20021;-74
2022/08/18 13:28:41;;;;;;;8.50;6.72;;;;;;;;;;5046666;28;20021;-75
2022/08/18 13:31:07;;;;;;;16.45;7.90;;;;;;;;;;5045955;28;20048;-76
2022/08/18 13:33:33;;;;;;;11.73;7.57;;;;;;;;;;5054172;28;20025;-77
2022/08/18 13:35:59;;;;;;;11.07;7.22;;;;;;;;;;5055499;28;20025;-75
2022/08/18 13:38:25;;;;;;;13.00;6.43;;;;;;;;;;5056193;28;20025;-76
2022/08/18 13:40:56;;;;;;;10.10;6.13;;;;;;;;;;5055959;28;20025;-76
2022/08/18 13:43:28;;;;;;;12.13;6.97;;;;;;;;;;5039259;28;20228;-76
2022/08/18 13:45:54;;;;;;;14.90;6.35;;;;;;;;;;5040025;28;20017;-77
2022/08/18 13:48:20;;;;;;;11.73;6.55;;;;;;;;;;5059038;28;20017;-77
2022/08/18 13:50:46;;;;;;;12.25;7.25;;;;;;;;;;5056001;28;20509;-76
2022/08/18 13:53:14;;;;;;;11.80;9.18;;;;;;;;;;5059088;28;20037;-76
2022/08/18 13:55:40;;;;;;;14.13;10.20;;;;;;;;;;5056338;28;20032;-77
2022/08/18 13:58:06;;;;;;;20.75;11.00;;;;;;;;;;5054964;28;20036;-75
2022/08/18 14:00:33;;;;;;;16.13;10.38;;;;;;;;;;5055639;28;20358;-75
2022/08/18 14:02:59;;;;;;;12.07;9.10;;;;;;;;;;5058305;28;20025;-76
2022/08/18 14:05:25;;;;;;;13.90;9.38;;;;;;;;;;5058500;28;20025;-76
2022/08/18 14:07:51;;;;;;;18.77;11.48;;;;;;;;;;5038626;28;20132;-75
2022/08/18 14:10:17;;;;;;;19.15;11.57;;;;;;;;;;5056149;28;20052;-77
2022/08/18 14:12:44;;;;;;;18.35;11.45;;;;;;;;;;5055180;28;20510;-78
2022/08/18 14:15:11;;;;;;;18.05;11.18;;;;;;;;;;5054428;28;20021;-77
2022/08/18 14:17:38;;;;;;;17.40;10.55;;;;;;;;;;5079940;28;20112;-76
2022/08/18 14:28:19;;;;;;;16.00;10.85;;;;;;;;;;5074165;28;20432;-77
2022/08/18 14:30:46;;;;;;;15.40;12.90;;;;;;;;;;5054696;28;20020;-77
2022/08/18 14:33:14;;;;;;;19.48;13.18;;;;;;;;;;5072467;28;20060;-75
2022/08/18 14:35:41;;;;;;;19.33;13.07;;;;;;;;;;5073290;28;20421;-74
2022/08/18 14:38:07;;;;;;;17.98;12.25;;;;;;;;;;5060031;28;20034;-75
2022/08/18 14:40:34;;;;;;;13.60;11.13;;;;;;;;;;5062409;28;20048;-74
2022/08/18 14:43:01;;;;;;;14.70;10.43;;;;;;;;;;5057332;28;20051;-75
2022/08/18 14:45:28;;;;;;;12.50;10.25;;;;;;;;;;5072102;28;20017;-76
2022/08/18 14:47:54;;;;;;;16.25;8.38;;;;;;;;;;5075261;28;20021;-76
2022/08/18 14:50:21;;;;;;;11.65;8.00;;;;;;;;;;5074800;28;20032;-78
2022/08/18 14:52:47;;;;;;;12.48;9.15;;;;;;;;;;5073045;28;20021;-78
2022/08/18 14:55:14;;;;;;;15.75;9.82;;;;;;;;;;5072238;28;20068;-77
2022/08/18 14:57:42;;;;;;;12.35;8.30;;;;;;;;;;5073087;28;20032;-78
2022/08/18 15:00:13;;;;;;;13.52;8.93;;;;;;;;;;5072876;28;20090;-76